Time;durP1;ratioP1;P1;durP2;ratioP2;P2;SDS_P1;SDS_P2;PMS_P1;PMS_P2;Temp;Humidity;BMP_temperature;BMP_pressure;BME280_temperature;BME280_humidity;BME280_pressure;Samples;Min_cycle;Max_cycle;Signal;HPM_P1;HPM_P2
2022/01/02 00:02:02;;;;;;;64.50;36.33;;;;;;;;;;5072221;28;20024;-42
2022/01/02 00:04:30;;;;;;;38.92;23.40;;;;;;;;;;5071988;28;20097;-40
2022/01/02 00:07:00;;;;;;;44.22;23.48;;;;;;;;;;5072064;28;20051;-40
2022/01/02 00:09:31;;;;;;;44.53;25.20;;;;;;;;;;5071539;28;20085;-42
2022/01/02 00:12:08;;;;;;;56.80;34.85;;;;;;;;;;5071728;28;20081;-40
2022/01/02 00:14:35;;;;;;;44.83;25.50;;;;;;;;;;5071558;28;20786;-41
2022/01/02 00:17:05;;;;;;;97.13;50.75;;;;;;;;;;5071528;28;20412;-41
2022/01/02 00:19:32;;;;;;;87.20;46.95;;;;;;;;;;5072823;28;20028;-39
2022/01/02 00:22:01;;;;;;;57.95;31.88;;;;;;;;;;5071453;28;20025;-42
2022/01/02 00:24:28;;;;;;;34.80;19.08;;;;;;;;;;5071269;28;20152;-41
2022/01/02 00:26:55;;;;;;;41.30;24.15;;;;;;;;;;5070879;28;21174;-41
2022/01/02 00:29:22;;;;;;;36.15;21.52;;;;;;;;;;5071635;28;20159;-40
2022/01/02 00:31:48;;;;;;;33.88;19.27;;;;;;;;;;5071363;28;20054;-39
2022/01/02 00:34:15;;;;;;;41.40;23.90;;;;;;;;;;5071572;28;20474;-39
2022/01/02 00:36:41;;;;;;;45.65;24.75;;;;;;;;;;5071309;28;20020;-40
2022/01/02 00:39:08;;;;;;;43.70;24.52;;;;;;;;;;5071066;28;20477;-40
2022/01/02 00:41:49;;;;;;;33.13;20.45;;;;;;;;;;5068912;28;20039;-40
2022/01/02 00:44:18;;;;;;;40.42;22.48;;;;;;;;;;5070971;28;20127;-40
2022/01/02 00:46:48;;;;;;;38.35;22.77;;;;;;;;;;5071426;28;20147;-39
2022/01/02 00:49:17;;;;;;;61.83;35.13;;;;;;;;;;5071419;28;20035;-41
2022/01/02 00:51:51;;;;;;;100.57;52.95;;;;;;;;;;5070502;28;20020;-40
2022/01/02 00:54:18;;;;;;;37.20;21.90;;;;;;;;;;5070900;28;20020;-40
2022/01/02 00:56:45;;;;;;;37.58;22.20;;;;;;;;;;5070849;28;21401;-39
2022/01/02 00:59:28;;;;;;;40.22;21.45;;;;;;;;;;5070646;28;20032;-41
2022/01/02 01:02:03;;;;;;;34.45;19.60;;;;;;;;;;5071099;28;21074;-40
2022/01/02 01:04:32;;;;;;;37.60;23.15;;;;;;;;;;5071165;28;20518;-40
2022/01/02 01:07:04;;;;;;;36.05;21.77;;;;;;;;;;5070654;28;20036;-40
2022/01/02 01:09:33;;;;;;;46.30;25.52;;;;;;;;;;5070605;28;20031;-40
2022/01/02 01:12:00;;;;;;;42.28;22.73;;;;;;;;;;5071088;27;20508;-41
2022/01/02 01:14:27;;;;;;;46.78;23.38;;;;;;;;;;5070651;28;20121;-38
2022/01/02 01:16:53;;;;;;;48.05;26.90;;;;;;;;;;5070465;28;20060;-43
2022/01/02 01:19:22;;;;;;;58.30;31.90;;;;;;;;;;5070432;28;20088;-38
2022/01/02 01:21:49;;;;;;;52.08;26.40;;;;;;;;;;5070650;28;20090;-43
2022/01/02 01:24:15;;;;;;;57.30;32.35;;;;;;;;;;5070294;28;20130;-42
2022/01/02 01:26:41;;;;;;;46.92;25.15;;;;;;;;;;5069678;28;20055;-40
2022/01/02 01:29:07;;;;;;;48.88;25.80;;;;;;;;;;5070894;28;20419;-42
2022/01/02 01:31:34;;;;;;;50.85;26.90;;;;;;;;;;5069985;28;20024;-42
2022/01/02 01:34:00;;;;;;;52.95;28.13;;;;;;;;;;5070649;28;20081;-42
2022/01/02 01:36:26;;;;;;;45.53;24.48;;;;;;;;;;5070154;28;20999;-39
2022/01/02 01:38:54;;;;;;;48.42;25.25;;;;;;;;;;5070337;28;21456;-41
2022/01/02 01:41:29;;;;;;;45.70;24.83;;;;;;;;;;5069674;28;20020;-38
2022/01/02 01:44:21;;;;;;;39.17;21.65;;;;;;;;;;5070091;28;20107;-41
2022/01/02 01:46:51;;;;;;;42.67;23.52;;;;;;;;;;5069283;28;20036;-39
2022/01/02 01:49:19;;;;;;;37.22;21.20;;;;;;;;;;5069838;28;20031;-42
2022/01/02 01:51:45;;;;;;;38.65;21.08;;;;;;;;;;5068756;28;20104;-40
2022/01/02 01:54:11;;;;;;;44.97;23.88;;;;;;;;;;5070262;28;20035;-41
2022/01/02 01:56:38;;;;;;;31.10;18.45;;;;;;;;;;5069126;28;20060;-41
2022/01/02 01:59:05;;;;;;;41.95;23.45;;;;;;;;;;5085964;28;20036;-42
2022/01/02 02:01:31;;;;;;;51.80;30.30;;;;;;;;;;5094387;28;20024;-41
2022/01/02 02:03:57;;;;;;;54.50;29.67;;;;;;;;;;5094532;28;20433;-38
2022/01/02 02:06:23;;;;;;;47.58;25.25;;;;;;;;;;5094268;28;20028;-39
2022/01/02 02:08:53;;;;;;;45.38;22.77;;;;;;;;;;5094362;28;20111;-40
2022/01/02 02:11:20;;;;;;;31.67;19.98;;;;;;;;;;5094161;28;20028;-39
2022/01/02 02:13:46;;;;;;;37.83;21.17;;;;;;;;;;5092679;28;20474;-40
2022/01/02 02:16:12;;;;;;;38.55;21.23;;;;;;;;;;5094243;28;20024;-39
2022/01/02 02:18:41;;;;;;;37.95;22.73;;;;;;;;;;5094348;28;20020;-39
2022/01/02 02:21:07;;;;;;;47.05;26.42;;;;;;;;;;5094208;28;20148;-42
2022/01/02 02:23:33;;;;;;;33.83;20.38;;;;;;;;;;5093996;28;20519;-40
2022/01/02 02:26:02;;;;;;;37.55;19.40;;;;;;;;;;5093815;28;20028;-39
2022/01/02 02:28:28;;;;;;;36.45;21.10;;;;;;;;;;5093660;28;20179;-43
2022/01/02 02:30:55;;;;;;;37.65;22.02;;;;;;;;;;5093927;28;20059;-43
2022/01/02 02:33:21;;;;;;;39.22;24.02;;;;;;;;;;5092680;28;20035;-42
2022/01/02 02:35:48;;;;;;;43.22;24.23;;;;;;;;;;5093840;28;20035;-40
2022/01/02 02:38:16;;;;;;;46.22;24.90;;;;;;;;;;5093891;28;20026;-42
2022/01/02 02:40:45;;;;;;;43.63;25.35;;;;;;;;;;5093754;28;20427;-42
2022/01/02 02:54:03;;;;;;;26.60;15.98;;;;;;;;;;5093697;28;20039;-42
2022/01/02 02:56:41;;;;;;;27.83;16.50;;;;;;;;;;5093383;28;20096;-42
2022/01/02 02:59:07;;;;;;;22.60;13.93;;;;;;;;;;5093456;28;20486;-42
2022/01/02 03:01:33;;;;;;;24.85;13.85;;;;;;;;;;5093485;28;20016;-42
2022/01/02 03:03:59;;;;;;;23.77;14.23;;;;;;;;;;5093160;28;20556;-43
2022/01/02 03:06:25;;;;;;;28.83;17.38;;;;;;;;;;5093313;28;20032;-43
2022/01/02 03:08:52;;;;;;;34.00;19.88;;;;;;;;;;5093394;28;20028;-39
2022/01/02 03:11:20;;;;;;;22.80;14.15;;;;;;;;;;5093133;28;20025;-40
2022/01/02 03:13:48;;;;;;;23.30;14.45;;;;;;;;;;5093369;28;20031;-42
2022/01/02 03:16:15;;;;;;;21.67;14.05;;;;;;;;;;5093395;28;20384;-39
2022/01/02 03:18:41;;;;;;;31.55;20.75;;;;;;;;;;5093317;28;20035;-40
2022/01/02 03:21:07;;;;;;;20.55;11.77;;;;;;;;;;5093191;28;20048;-42
2022/01/02 03:23:33;;;;;;;19.73;13.80;;;;;;;;;;5093129;28;20012;-42
2022/01/02 03:25:59;;;;;;;25.23;14.98;;;;;;;;;;5093178;28;20035;-43
2022/01/02 03:28:25;;;;;;;25.50;16.20;;;;;;;;;;5093015;28;20052;-43
2022/01/02 03:30:54;;;;;;;24.45;15.45;;;;;;;;;;5093266;28;20020;-42
2022/01/02 03:33:20;;;;;;;21.98;13.75;;;;;;;;;;5093349;28;20027;-42
2022/01/02 03:35:46;;;;;;;24.23;14.48;;;;;;;;;;5093112;28;20019;-40
2022/01/02 03:38:12;;;;;;;26.08;15.00;;;;;;;;;;5093345;28;20103;-42
2022/01/02 03:40:41;;;;;;;26.10;14.70;;;;;;;;;;5092923;28;20024;-42
2022/01/02 03:43:07;;;;;;;18.75;12.38;;;;;;;;;;5093131;28;20554;-41
2022/01/02 03:45:33;;;;;;;22.25;14.18;;;;;;;;;;5092963;28;20031;-42
2022/01/02 03:47:59;;;;;;;23.60;14.32;;;;;;;;;;5092871;28;20032;-40
2022/01/02 03:50:26;;;;;;;24.95;15.57;;;;;;;;;;5092943;28;20478;-42
2022/01/02 03:52:54;;;;;;;23.48;15.55;;;;;;;;;;5092987;28;20115;-43
2022/01/02 03:55:21;;;;;;;24.52;15.10;;;;;;;;;;5092937;28;20013;-41
2022/01/02 03:57:47;;;;;;;23.25;14.60;;;;;;;;;;5092701;28;20032;-40
2022/01/02 04:00:14;;;;;;;20.73;13.32;;;;;;;;;;5092925;28;20028;-42
2022/01/02 04:02:40;;;;;;;21.95;12.15;;;;;;;;;;5092871;28;20089;-40
2022/01/02 04:05:07;;;;;;;18.55;11.35;;;;;;;;;;5092826;28;20025;-38
2022/01/02 04:07:33;;;;;;;16.30;11.10;;;;;;;;;;5092962;28;20089;-39
2022/01/02 04:10:05;;;;;;;23.10;14.77;;;;;;;;;;5092697;28;20040;-41
2022/01/02 04:12:31;;;;;;;;;;;;;;;;;;5093342;28;20064;-41
2022/01/02 04:14:57;;;;;;;24.92;14.90;;;;;;;;;;5093235;28;19912;-39
2022/01/02 04:17:23;;;;;;;29.50;16.90;;;;;;;;;;5096570;28;20103;-39
2022/01/02 04:19:50;;;;;;;25.60;14.40;;;;;;;;;;5096319;28;20051;-39
2022/01/02 04:22:16;;;;;;;19.30;12.70;;;;;;;;;;5096599;28;20031;-39
2022/01/02 04:24:42;;;;;;;20.25;12.45;;;;;;;;;;5096379;28;20020;-40
2022/01/02 04:27:08;;;;;;;18.73;12.68;;;;;;;;;;5095976;28;20044;-38
2022/01/02 04:29:34;;;;;;;20.95;12.77;;;;;;;;;;5096440;28;20032;-39
2022/01/02 04:32:01;;;;;;;21.70;12.32;;;;;;;;;;5096299;28;20024;-39
2022/01/02 04:34:27;;;;;;;21.60;12.63;;;;;;;;;;5096099;28;20028;-41
2022/01/02 04:36:53;;;;;;;23.83;13.05;;;;;;;;;;5096105;28;20024;-39
2022/01/02 04:39:22;;;;;;;26.48;14.80;;;;;;;;;;5096080;28;20016;-42
2022/01/02 04:41:48;;;;;;;25.58;13.40;;;;;;;;;;5096032;28;20039;-41
2022/01/02 04:44:16;;;;;;;22.35;13.38;;;;;;;;;;5096125;28;20389;-41
2022/01/02 04:46:42;;;;;;;25.15;14.85;;;;;;;;;;5095848;28;20060;-40
2022/01/02 04:49:08;;;;;;;25.42;15.05;;;;;;;;;;5095921;28;20051;-41
2022/01/02 04:51:35;;;;;;;22.88;14.32;;;;;;;;;;5095945;28;20016;-42
2022/01/02 04:54:01;;;;;;;19.08;12.45;;;;;;;;;;5095808;28;20122;-42
2022/01/02 04:56:27;;;;;;;18.58;12.27;;;;;;;;;;5095741;28;20032;-41
2022/01/02 04:58:53;;;;;;;17.92;11.52;;;;;;;;;;5095674;28;20496;-42
2022/01/02 05:01:19;;;;;;;17.92;11.88;;;;;;;;;;5095773;28;20469;-42
2022/01/02 05:03:46;;;;;;;20.90;13.13;;;;;;;;;;5095737;28;20047;-42
2022/01/02 05:06:14;;;;;;;16.75;12.10;;;;;;;;;;5095614;28;20021;-42
2022/01/02 05:08:43;;;;;;;17.90;12.52;;;;;;;;;;5095612;28;20144;-42
2022/01/02 05:11:10;;;;;;;18.10;12.02;;;;;;;;;;5095549;28;20038;-42
2022/01/02 05:13:36;;;;;;;18.85;12.30;;;;;;;;;;5095621;28;20095;-42
2022/01/02 05:16:02;;;;;;;17.35;12.10;;;;;;;;;;5095412;28;20489;-42
2022/01/02 05:18:28;;;;;;;17.45;11.50;;;;;;;;;;5095326;28;20028;-42
2022/01/02 05:20:54;;;;;;;22.42;11.80;;;;;;;;;;5095275;28;20363;-41
2022/01/02 05:23:21;;;;;;;17.77;11.88;;;;;;;;;;5095569;28;20024;-42
2022/01/02 05:25:48;;;;;;;18.10;11.57;;;;;;;;;;5095092;28;20363;-43
2022/01/02 05:28:14;;;;;;;17.30;11.35;;;;;;;;;;5094964;28;20550;-42
2022/01/02 05:30:41;;;;;;;19.95;12.15;;;;;;;;;;5095061;28;20031;-41
2022/01/02 05:33:07;;;;;;;18.35;11.57;;;;;;;;;;5095591;28;20028;-42
2022/01/02 05:35:34;;;;;;;25.58;14.30;;;;;;;;;;5094955;28;20112;-42
2022/01/02 05:38:01;;;;;;;30.77;16.70;;;;;;;;;;5094941;28;20060;-42
2022/01/02 05:40:34;;;;;;;40.08;19.05;;;;;;;;;;5094930;28;20504;-41
2022/01/02 05:43:01;;;;;;;43.88;23.15;;;;;;;;;;5094921;28;20066;-42
2022/01/02 05:45:27;;;;;;;61.70;28.52;;;;;;;;;;5094801;28;20120;-40
2022/01/02 05:47:53;;;;;;;77.88;34.92;;;;;;;;;;5094750;28;20043;-42
2022/01/02 05:50:19;;;;;;;83.63;39.25;;;;;;;;;;5094638;28;20024;-41
2022/01/02 05:52:45;;;;;;;67.97;32.03;;;;;;;;;;5094920;28;20363;-41
2022/01/02 05:55:14;;;;;;;52.15;27.42;;;;;;;;;;5094845;28;20026;-42
2022/01/02 05:57:40;;;;;;;38.53;23.20;;;;;;;;;;5094383;28;20057;-42
2022/01/02 06:00:07;;;;;;;27.83;16.95;;;;;;;;;;5094380;28;20549;-41
2022/01/02 06:02:33;;;;;;;23.38;14.57;;;;;;;;;;5094640;28;20032;-39
2022/01/02 06:05:02;;;;;;;16.95;11.57;;;;;;;;;;5094344;28;20458;-38
2022/01/02 06:07:28;;;;;;;17.85;10.77;;;;;;;;;;5094395;28;20039;-37
2022/01/02 06:09:54;;;;;;;19.85;11.70;;;;;;;;;;5094506;28;20016;-38
2022/01/02 06:12:23;;;;;;;20.17;12.25;;;;;;;;;;5094206;28;20017;-38
2022/01/02 06:14:49;;;;;;;17.75;12.02;;;;;;;;;;5094367;28;20390;-39
2022/01/02 06:17:15;;;;;;;23.20;13.23;;;;;;;;;;5094261;28;20024;-39
2022/01/02 06:19:41;;;;;;;25.52;15.18;;;;;;;;;;5094182;28;20020;-38
2022/01/02 06:22:07;;;;;;;25.67;15.65;;;;;;;;;;5094210;28;20111;-39
2022/01/02 06:24:33;;;;;;;17.85;12.70;;;;;;;;;;5094096;28;20035;-39
2022/01/02 06:26:59;;;;;;;24.75;14.63;;;;;;;;;;5093768;28;20047;-39
2022/01/02 06:29:25;;;;;;;30.40;18.60;;;;;;;;;;5094179;28;20032;-38
2022/01/02 06:31:53;;;;;;;38.10;20.45;;;;;;;;;;5093872;28;20071;-39
2022/01/02 06:34:19;;;;;;;38.10;19.88;;;;;;;;;;5093828;28;20099;-39
2022/01/02 06:36:48;;;;;;;45.60;23.02;;;;;;;;;;5093916;28;20035;-38
2022/01/02 06:39:14;;;;;;;50.22;24.38;;;;;;;;;;5093460;28;20020;-39
2022/01/02 06:41:40;;;;;;;46.70;24.40;;;;;;;;;;5093731;28;20059;-38
2022/01/02 06:44:06;;;;;;;36.58;20.70;;;;;;;;;;5093764;28;20028;-39
2022/01/02 06:46:32;;;;;;;35.95;21.55;;;;;;;;;;5093749;28;20107;-38
2022/01/02 06:48:58;;;;;;;34.28;20.58;;;;;;;;;;5093553;28;20036;-41
2022/01/02 06:51:24;;;;;;;32.85;20.40;;;;;;;;;;5093682;28;20028;-39
2022/01/02 06:53:51;;;;;;;33.70;21.20;;;;;;;;;;5093636;28;20059;-39
2022/01/02 06:56:17;;;;;;;50.72;29.27;;;;;;;;;;5093593;28;20020;-39
2022/01/02 06:58:43;;;;;;;53.92;33.83;;;;;;;;;;5093503;28;20028;-39
2022/01/02 07:01:09;;;;;;;41.95;26.30;;;;;;;;;;5093557;28;20084;-42
2022/01/02 07:03:35;;;;;;;34.38;20.35;;;;;;;;;;5093492;28;20035;-42
2022/01/02 07:06:01;;;;;;;37.60;19.50;;;;;;;;;;5093619;28;20376;-42
2022/01/02 07:08:28;;;;;;;36.42;20.98;;;;;;;;;;5093429;28;20035;-42
2022/01/02 07:10:57;;;;;;;31.40;18.02;;;;;;;;;;5093200;28;20516;-39
2022/01/02 07:13:23;;;;;;;21.55;12.80;;;;;;;;;;5093500;28;20031;-39
2022/01/02 07:15:49;;;;;;;24.02;13.45;;;;;;;;;;5093413;28;20466;-38
2022/01/02 07:18:15;;;;;;;25.30;13.75;;;;;;;;;;5093289;28;20481;-44
2022/01/02 07:20:42;;;;;;;20.13;12.50;;;;;;;;;;5093272;28;20020;-42
2022/01/02 07:23:08;;;;;;;27.10;14.40;;;;;;;;;;5093267;28;20027;-43
2022/01/02 07:25:43;;;;;;;26.25;15.20;;;;;;;;;;5093416;28;20056;-43
2022/01/02 07:28:09;;;;;;;22.88;13.57;;;;;;;;;;5093045;28;20051;-42
2022/01/02 07:30:35;;;;;;;22.35;13.70;;;;;;;;;;5093130;28;20160;-41
2022/01/02 07:33:02;;;;;;;19.50;12.27;;;;;;;;;;5093127;28;20033;-42
2022/01/02 07:35:32;;;;;;;19.60;12.07;;;;;;;;;;5091485;28;20031;-43
2022/01/02 07:37:58;;;;;;;41.30;25.83;;;;;;;;;;5091874;28;20431;-40
2022/01/02 07:40:24;;;;;;;46.92;29.77;;;;;;;;;;5093278;28;20020;-39
2022/01/02 07:42:50;;;;;;;35.45;25.23;;;;;;;;;;5093015;28;20099;-40
2022/01/02 07:45:17;;;;;;;32.50;20.63;;;;;;;;;;5093099;28;20024;-41
2022/01/02 07:47:43;;;;;;;47.85;29.50;;;;;;;;;;5092950;28;20021;-40
2022/01/02 07:50:09;;;;;;;43.35;29.50;;;;;;;;;;5093667;28;20028;-43
2022/01/02 07:52:36;;;;;;;29.38;20.15;;;;;;;;;;5096946;28;20028;-40
2022/01/02 07:55:03;;;;;;;37.35;22.08;;;;;;;;;;5096888;28;20147;-40
2022/01/02 07:57:29;;;;;;;44.35;26.13;;;;;;;;;;5096709;28;20379;-44
2022/01/02 07:59:55;;;;;;;48.33;31.05;;;;;;;;;;5096899;28;20035;-42
2022/01/02 08:02:21;;;;;;;50.67;32.88;;;;;;;;;;5096798;28;20042;-39
2022/01/02 08:04:47;;;;;;;55.67;35.38;;;;;;;;;;5096657;28;20024;-39
2022/01/02 08:07:15;;;;;;;61.35;36.22;;;;;;;;;;5096659;28;20069;-39
2022/01/02 08:09:41;;;;;;;52.42;33.33;;;;;;;;;;5096676;28;20509;-39
2022/01/02 08:12:07;;;;;;;46.83;30.02;;;;;;;;;;5096435;28;20386;-39
2022/01/02 08:14:33;;;;;;;41.92;26.35;;;;;;;;;;5096581;28;20027;-39
2022/01/02 08:17:00;;;;;;;38.90;25.33;;;;;;;;;;5096372;28;20024;-39
2022/01/02 08:19:26;;;;;;;39.00;25.77;;;;;;;;;;5096350;28;20471;-40
2022/01/02 08:21:52;;;;;;;40.78;27.48;;;;;;;;;;5096327;28;20065;-39
2022/01/02 08:24:18;;;;;;;42.75;29.60;;;;;;;;;;5096293;28;20035;-40
2022/01/02 08:26:46;;;;;;;40.63;28.73;;;;;;;;;;5095978;28;20032;-39
2022/01/02 08:29:14;;;;;;;45.72;29.15;;;;;;;;;;5096316;28;20032;-39
2022/01/02 08:31:40;;;;;;;55.00;31.92;;;;;;;;;;5096322;28;20027;-39
2022/01/02 08:34:07;;;;;;;50.88;31.20;;;;;;;;;;5096190;28;20024;-39
2022/01/02 08:36:33;;;;;;;47.13;31.73;;;;;;;;;;5096327;28;20085;-39
2022/01/02 08:38:59;;;;;;;44.33;29.58;;;;;;;;;;5096127;28;20096;-39
2022/01/02 08:41:25;;;;;;;40.30;29.23;;;;;;;;;;5095943;28;20020;-40
2022/01/02 08:43:51;;;;;;;46.55;31.65;;;;;;;;;;5096172;28;20392;-40
2022/01/02 08:46:17;;;;;;;44.22;29.08;;;;;;;;;;5096171;28;20078;-42
2022/01/02 08:48:43;;;;;;;57.10;31.00;;;;;;;;;;5095838;28;20082;-41
2022/01/02 08:51:12;;;;;;;51.03;33.20;;;;;;;;;;5096023;28;20415;-40
2022/01/02 08:53:38;;;;;;;43.05;28.27;;;;;;;;;;5095949;28;20504;-41
2022/01/02 08:56:04;;;;;;;54.20;33.42;;;;;;;;;;5095730;28;20444;-40
2022/01/02 08:58:31;;;;;;;43.75;29.20;;;;;;;;;;5095714;28;20024;-44
2022/01/02 09:00:57;;;;;;;53.17;30.77;;;;;;;;;;5095282;28;20020;-41
2022/01/02 09:03:24;;;;;;;52.85;32.65;;;;;;;;;;5095619;28;20020;-41
2022/01/02 09:05:50;;;;;;;46.45;29.75;;;;;;;;;;5095559;28;20099;-41
2022/01/02 09:08:16;;;;;;;35.95;22.88;;;;;;;;;;5095408;28;20504;-40
2022/01/02 09:10:42;;;;;;;37.72;24.77;;;;;;;;;;5095541;28;20024;-40
2022/01/02 09:13:08;;;;;;;48.45;30.08;;;;;;;;;;5095372;28;20024;-41
2022/01/02 09:15:34;;;;;;;62.13;33.63;;;;;;;;;;5095500;28;20602;-40
2022/01/02 09:18:01;;;;;;;54.33;32.10;;;;;;;;;;5095286;28;20035;-40
2022/01/02 09:20:30;;;;;;;56.38;33.20;;;;;;;;;;5095457;28;20024;-40
2022/01/02 09:22:56;;;;;;;56.75;33.65;;;;;;;;;;5095463;28;20048;-40
2022/01/02 09:25:22;;;;;;;52.83;33.72;;;;;;;;;;5095326;28;20016;-42
2022/01/02 09:27:48;;;;;;;42.40;27.45;;;;;;;;;;5094687;28;20125;-41
2022/01/02 09:30:14;;;;;;;51.67;30.30;;;;;;;;;;5095225;28;20077;-40
2022/01/02 09:32:41;;;;;;;47.92;33.15;;;;;;;;;;5095102;28;20035;-40
2022/01/02 09:35:08;;;;;;;94.40;58.08;;;;;;;;;;5094976;28;20020;-41
2022/01/02 09:37:34;;;;;;;84.10;48.15;;;;;;;;;;5095119;28;20089;-40
2022/01/02 09:40:01;;;;;;;72.68;44.97;;;;;;;;;;5095089;28;20028;-40
2022/01/02 09:42:27;;;;;;;46.45;27.45;;;;;;;;;;5094913;28;20020;-40
2022/01/02 09:44:54;;;;;;;110.55;33.53;;;;;;;;;;5094852;28;20024;-40
2022/01/02 09:47:24;;;;;;;78.00;38.63;;;;;;;;;;5094754;28;20493;-40
2022/01/02 09:49:50;;;;;;;64.85;35.55;;;;;;;;;;5094656;28;20043;-41
2022/01/02 09:52:17;;;;;;;198.18;39.22;;;;;;;;;;5095060;28;20347;-44
2022/01/02 09:54:44;;;;;;;67.05;41.08;;;;;;;;;;5094793;28;20102;-45
2022/01/02 09:57:11;;;;;;;53.13;37.08;;;;;;;;;;5094647;28;20031;-42
2022/01/02 09:59:37;;;;;;;60.33;38.03;;;;;;;;;;5094603;28;20039;-44
2022/01/02 10:02:03;;;;;;;63.38;41.72;;;;;;;;;;5094528;28;20466;-43
2022/01/02 10:04:34;;;;;;;62.03;38.10;;;;;;;;;;5094406;28;20056;-44
2022/01/02 10:07:00;;;;;;;50.92;32.60;;;;;;;;;;5094581;28;20035;-42
2022/01/02 10:09:30;;;;;;;33.65;24.70;;;;;;;;;;5094291;28;20028;-43
2022/01/02 10:12:15;;;;;;;46.55;30.23;;;;;;;;;;5094297;28;20052;-42
2022/01/02 10:14:41;;;;;;;33.60;21.42;;;;;;;;;;5093771;28;20056;-42
2022/01/02 10:17:07;;;;;;;27.95;19.10;;;;;;;;;;5094090;28;20024;-43
2022/01/02 10:19:38;;;;;;;27.80;17.85;;;;;;;;;;5094174;28;20102;-42
2022/01/02 10:22:05;;;;;;;19.25;13.60;;;;;;;;;;5093968;28;20028;-42
2022/01/02 10:24:42;;;;;;;21.60;13.35;;;;;;;;;;5094115;28;20048;-43
2022/01/02 10:27:13;;;;;;;20.33;12.02;;;;;;;;;;5093566;28;20093;-43
2022/01/02 10:29:51;;;;;;;16.67;10.95;;;;;;;;;;5093537;28;20083;-44
2022/01/02 10:32:29;;;;;;;19.25;13.20;;;;;;;;;;5093845;28;20040;-42
2022/01/02 10:35:16;;;;;;;15.82;10.77;;;;;;;;;;5093796;28;20531;-43
2022/01/02 10:37:43;;;;;;;14.43;10.50;;;;;;;;;;5093604;28;20039;-43
2022/01/02 10:40:30;;;;;;;26.65;16.33;;;;;;;;;;5093534;28;20024;-42
2022/01/02 10:42:57;;;;;;;22.75;13.60;;;;;;;;;;5093487;28;20027;-44
2022/01/02 10:45:40;;;;;;;14.15;9.43;;;;;;;;;;5093611;28;20109;-44
2022/01/02 10:48:09;;;;;;;12.27;8.88;;;;;;;;;;5093579;28;20032;-44
2022/01/02 10:50:35;;;;;;;9.10;5.82;;;;;;;;;;5093589;28;20027;-46
2022/01/02 10:53:17;;;;;;;7.93;5.18;;;;;;;;;;5093658;28;20024;-45
2022/01/02 10:55:44;;;;;;;7.90;5.88;;;;;;;;;;5093482;28;20381;-42
2022/01/02 10:58:10;;;;;;;19.08;10.02;;;;;;;;;;5093597;28;20036;-45
2022/01/02 11:00:37;;;;;;;11.32;6.88;;;;;;;;;;5093453;28;20081;-43
2022/01/02 11:03:05;;;;;;;12.52;7.65;;;;;;;;;;5093475;28;20064;-43
2022/01/02 11:05:31;;;;;;;21.33;12.23;;;;;;;;;;5093606;28;20028;-43
2022/01/02 11:08:01;;;;;;;23.45;13.52;;;;;;;;;;5093027;28;20020;-44
2022/01/02 11:10:28;;;;;;;13.68;8.18;;;;;;;;;;5093384;28;20024;-42
2022/01/02 11:12:55;;;;;;;12.70;7.80;;;;;;;;;;5093263;28;20382;-44
2022/01/02 11:15:22;;;;;;;10.93;6.90;;;;;;;;;;5093380;28;20069;-44
2022/01/02 11:17:48;;;;;;;18.02;10.35;;;;;;;;;;5093298;28;20027;-45
2022/01/02 11:20:19;;;;;;;29.25;17.13;;;;;;;;;;5093161;28;20105;-44
2022/01/02 11:23:03;;;;;;;16.17;10.80;;;;;;;;;;5093299;28;20032;-43
2022/01/02 11:25:32;;;;;;;17.50;11.68;;;;;;;;;;5098824;28;20020;-45
2022/01/02 11:28:03;;;;;;;23.10;12.63;;;;;;;;;;5099781;28;20489;-44
2022/01/02 11:30:29;;;;;;;;;;;;;;;;;;5100548;28;20020;-44
2022/01/02 11:33:02;;;;;;;18.08;11.07;;;;;;;;;;5100070;28;19927;-45
2022/01/02 11:35:31;;;;;;;18.70;10.25;;;;;;;;;;5100081;28;20533;-45
2022/01/02 11:38:04;;;;;;;17.85;10.98;;;;;;;;;;5100050;28;20039;-44
2022/01/02 11:41:08;;;;;;;16.60;8.68;;;;;;;;;;5100033;28;20024;-45
2022/01/02 11:43:49;;;;;;;13.40;8.05;;;;;;;;;;5057634;28;20029;-42
2022/01/02 11:46:15;;;;;;;18.15;8.98;;;;;;;;;;5057457;28;20032;-44
2022/01/02 11:48:41;;;;;;;15.50;8.10;;;;;;;;;;5057233;28;20063;-43
2022/01/02 11:51:09;;;;;;;17.67;9.30;;;;;;;;;;5057457;28;20029;-42
2022/01/02 11:53:36;;;;;;;20.30;10.77;;;;;;;;;;5057413;28;20384;-43
2022/01/02 11:56:02;;;;;;;14.40;8.15;;;;;;;;;;5057245;28;20411;-43
2022/01/02 11:58:44;;;;;;;18.02;11.30;;;;;;;;;;5057543;28;20028;-43
2022/01/02 12:01:11;;;;;;;21.02;13.52;;;;;;;;;;5057425;28;20110;-43
2022/01/02 12:03:44;;;;;;;17.27;10.88;;;;;;;;;;5057527;28;20041;-42
2022/01/02 12:06:20;;;;;;;19.27;10.70;;;;;;;;;;5057241;28;20025;-43
2022/01/02 12:08:49;;;;;;;17.00;11.82;;;;;;;;;;5057279;28;20137;-42
2022/01/02 12:11:36;;;;;;;16.45;9.02;;;;;;;;;;5057292;28;20025;-44
2022/01/02 12:14:06;;;;;;;14.38;8.77;;;;;;;;;;5072105;28;20526;-43
2022/01/02 12:16:43;;;;;;;13.90;8.18;;;;;;;;;;5099466;28;20466;-43
2022/01/02 12:19:10;;;;;;;12.35;7.22;;;;;;;;;;5099495;28;20027;-43
2022/01/02 12:21:36;;;;;;;30.35;15.77;;;;;;;;;;5099775;28;20055;-42
2022/01/02 12:24:05;;;;;;;26.23;14.52;;;;;;;;;;5099877;28;20031;-43
2022/01/02 12:26:33;;;;;;;27.55;14.98;;;;;;;;;;5099706;28;20020;-43
2022/01/02 12:29:06;;;;;;;23.60;12.43;;;;;;;;;;5099282;28;20080;-43
2022/01/02 12:31:35;;;;;;;15.73;9.15;;;;;;;;;;5099541;28;20027;-44
2022/01/02 12:34:05;;;;;;;21.27;11.65;;;;;;;;;;5099449;28;20539;-44
2022/01/02 12:36:31;;;;;;;39.47;24.95;;;;;;;;;;5096830;28;20028;-44
2022/01/02 12:38:59;;;;;;;22.10;13.38;;;;;;;;;;5096448;28;20077;-44
2022/01/02 12:41:29;;;;;;;20.73;12.90;;;;;;;;;;5096652;28;20549;-42
2022/01/02 12:44:06;;;;;;;24.77;14.17;;;;;;;;;;5096110;28;20124;-43
2022/01/02 12:46:35;;;;;;;22.48;11.02;;;;;;;;;;5096174;28;20048;-42
2022/01/02 12:49:01;;;;;;;19.65;10.55;;;;;;;;;;5094691;28;20507;-44
2022/01/02 12:51:32;;;;;;;19.42;11.35;;;;;;;;;;5096269;28;20031;-44
2022/01/02 12:54:02;;;;;;;16.77;11.25;;;;;;;;;;5095904;28;20020;-45
2022/01/02 12:56:44;;;;;;;13.65;7.70;;;;;;;;;;5095901;28;20016;-43
2022/01/02 12:59:13;;;;;;;13.50;7.50;;;;;;;;;;5095822;28;20051;-44
2022/01/02 13:01:48;;;;;;;15.85;8.55;;;;;;;;;;5095863;28;20016;-44
2022/01/02 13:04:15;;;;;;;12.65;7.00;;;;;;;;;;5095865;28;20115;-43
2022/01/02 13:06:44;;;;;;;14.05;7.47;;;;;;;;;;5095773;28;20018;-45
2022/01/02 13:09:10;;;;;;;14.93;8.02;;;;;;;;;;5095513;28;20039;-45
2022/01/02 13:11:36;;;;;;;14.68;8.98;;;;;;;;;;5095526;28;20024;-43
2022/01/02 13:14:03;;;;;;;16.45;8.48;;;;;;;;;;5095670;28;20028;-44
2022/01/02 13:16:29;;;;;;;14.32;8.25;;;;;;;;;;5095443;28;20553;-45
2022/01/02 13:18:56;;;;;;;8.63;5.80;;;;;;;;;;5095607;28;20115;-44
2022/01/02 13:21:22;;;;;;;15.02;7.28;;;;;;;;;;5095446;28;20076;-43
2022/01/02 13:23:48;;;;;;;11.68;7.05;;;;;;;;;;5095358;28;20089;-43
2022/01/02 13:26:15;;;;;;;12.30;7.05;;;;;;;;;;5095151;28;20028;-44
2022/01/02 13:28:42;;;;;;;13.35;6.45;;;;;;;;;;5094950;28;20059;-45
2022/01/02 13:31:08;;;;;;;13.70;6.03;;;;;;;;;;5095399;28;20020;-43
2022/01/02 13:33:43;;;;;;;17.95;9.18;;;;;;;;;;5095168;28;20077;-43
2022/01/02 13:36:14;;;;;;;17.50;10.40;;;;;;;;;;5095488;28;20020;-45
2022/01/02 13:38:55;;;;;;;16.73;9.45;;;;;;;;;;5095094;28;20025;-44
2022/01/02 13:41:23;;;;;;;23.83;14.60;;;;;;;;;;5095223;28;20043;-42
2022/01/02 13:43:50;;;;;;;25.83;12.98;;;;;;;;;;5094890;28;20059;-44
2022/01/02 13:46:20;;;;;;;22.92;11.93;;;;;;;;;;5095028;28;20073;-44
2022/01/02 13:48:46;;;;;;;15.45;9.68;;;;;;;;;;5093615;28;20081;-42
2022/01/02 13:51:14;;;;;;;26.45;14.77;;;;;;;;;;5094863;28;20371;-44
2022/01/02 13:53:40;;;;;;;20.60;10.88;;;;;;;;;;5094720;28;20024;-44
2022/01/02 13:56:06;;;;;;;13.00;8.02;;;;;;;;;;5094525;28;20489;-46
2022/01/02 13:58:33;;;;;;;14.73;8.35;;;;;;;;;;5094945;28;20118;-45
2022/01/02 14:01:01;;;;;;;15.57;9.10;;;;;;;;;;5094729;28;20020;-43
2022/01/02 14:03:27;;;;;;;24.05;11.88;;;;;;;;;;5094675;28;20028;-42
2022/01/02 14:05:53;;;;;;;24.13;12.50;;;;;;;;;;5094503;28;20054;-41
2022/01/02 14:08:20;;;;;;;29.05;14.57;;;;;;;;;;5094606;28;20093;-42
2022/01/02 14:10:46;;;;;;;23.02;15.77;;;;;;;;;;5094458;28;20082;-44
2022/01/02 14:13:15;;;;;;;26.60;15.77;;;;;;;;;;5094465;28;20035;-42
2022/01/02 14:15:42;;;;;;;30.10;16.83;;;;;;;;;;5094375;28;20164;-42
2022/01/02 14:18:08;;;;;;;31.05;18.58;;;;;;;;;;5094220;28;20031;-42
2022/01/02 14:20:37;;;;;;;31.05;17.85;;;;;;;;;;5094293;28;20030;-41
2022/01/02 14:23:05;;;;;;;31.15;17.27;;;;;;;;;;5094562;28;20024;-42
2022/01/02 14:25:31;;;;;;;34.28;18.20;;;;;;;;;;5094210;28;20492;-42
2022/01/02 14:27:58;;;;;;;32.95;18.17;;;;;;;;;;5093922;28;20102;-42
2022/01/02 14:30:24;;;;;;;31.15;17.63;;;;;;;;;;5094215;28;20482;-41
2022/01/02 14:32:52;;;;;;;29.88;17.13;;;;;;;;;;5094241;28;20550;-43
2022/01/02 14:35:18;;;;;;;28.48;15.95;;;;;;;;;;5094135;28;20031;-44